Time;durP1;ratioP1;P1;durP2;ratioP2;P2;SDS_P1;SDS_P2;PMS_P1;PMS_P2;Temp;Humidity;BMP_temperature;BMP_pressure;BME280_temperature;BME280_humidity;BME280_pressure;Samples;Min_cycle;Max_cycle;Signal;HPM_P1;HPM_P2
2022/10/08 00:01:12;;;;;;;15.77;11.27;;;14.20;99.90;;;;;;4994586;28;20025;-75
2022/10/08 00:03:43;;;;;;;21.42;11.88;;;14.10;99.90;;;;;;4987477;28;20029;-75
2022/10/08 00:06:27;;;;;;;22.58;12.65;;;14.20;99.90;;;;;;4992720;28;20116;-75
2022/10/08 00:09:07;;;;;;;22.33;13.57;;;14.10;99.90;;;;;;5008902;28;20073;-75
2022/10/08 00:11:42;;;;;;;21.05;12.60;;;14.10;99.90;;;;;;5011037;28;20034;-75
2022/10/08 00:14:11;;;;;;;23.25;12.80;;;14.10;99.90;;;;;;5011756;28;20581;-75
2022/10/08 00:16:39;;;;;;;16.40;11.43;;;14.10;99.90;;;;;;5017373;28;20030;-75
2022/10/08 00:19:13;;;;;;;19.60;12.02;;;14.10;99.90;;;;;;5011611;28;20037;-75
2022/10/08 00:21:43;;;;;;;23.58;11.40;;;14.10;99.90;;;;;;5012922;28;20092;-76
2022/10/08 00:24:15;;;;;;;26.35;12.60;;;14.10;99.90;;;;;;5011171;28;20021;-74
2022/10/08 00:26:44;;;;;;;18.70;11.63;;;14.10;99.90;;;;;;5009997;28;20045;-75
2022/10/08 00:29:15;;;;;;;22.20;11.65;;;14.10;99.90;;;;;;5006703;28;20057;-75
2022/10/08 00:31:55;;;;;;;17.60;11.38;;;14.00;99.90;;;;;;5008996;28;20160;-75
2022/10/08 00:34:24;;;;;;;19.33;11.35;;;14.00;99.90;;;;;;4997347;28;20029;-75
2022/10/08 00:36:52;;;;;;;19.88;10.85;;;14.10;99.90;;;;;;4992211;28;20036;-75
2022/10/08 00:39:20;;;;;;;19.77;11.75;;;14.00;99.90;;;;;;5011657;28;20088;-76
2022/10/08 00:41:52;;;;;;;19.88;11.27;;;14.10;99.90;;;;;;5005554;28;20044;-76
2022/10/08 00:44:45;;;;;;;17.83;10.98;;;14.10;99.90;;;;;;5010686;28;20030;-76
2022/10/08 00:47:19;;;;;;;16.47;10.43;;;14.10;99.90;;;;;;5007207;28;20105;-75
2022/10/08 00:49:50;;;;;;;15.15;9.85;;;14.10;99.90;;;;;;5007879;28;20109;-75
2022/10/08 00:52:20;;;;;;;13.27;9.82;;;14.10;99.90;;;;;;5011429;28;20449;-75
2022/10/08 00:54:49;;;;;;;15.93;10.65;;;14.10;99.90;;;;;;5009138;28;20030;-75
2022/10/08 00:57:15;;;;;;;18.38;10.85;;;14.10;99.90;;;;;;5011191;28;20018;-75
2022/10/08 00:59:46;;;;;;;19.13;10.82;;;14.10;99.90;;;;;;5008840;28;20030;-75
2022/10/08 01:02:12;;;;;;;15.93;10.63;;;14.10;99.90;;;;;;5038374;23;20068;-75
2022/10/08 01:04:39;;;;;;;14.10;10.27;;;14.00;99.90;;;;;;5004313;28;20066;-75
2022/10/08 01:07:24;;;;;;;19.05;11.30;;;14.10;99.90;;;;;;5009723;28;20105;-75
2022/10/08 01:09:55;;;;;;;21.48;12.15;;;14.00;99.90;;;;;;5020197;28;20145;-74
2022/10/08 01:13:06;;;;;;;17.80;11.13;;;14.00;99.90;;;;;;5004471;28;20172;-74
2022/10/08 01:16:10;;;;;;;20.02;10.50;;;14.00;99.90;;;;;;4988506;28;20026;-74
2022/10/08 01:18:51;;;;;;;17.43;10.67;;;14.00;99.90;;;;;;4993131;28;20057;-74
2022/10/08 01:21:21;;;;;;;16.92;10.18;;;14.00;99.90;;;;;;5008423;28;20027;-75
2022/10/08 01:24:13;;;;;;;14.57;9.40;;;14.00;99.90;;;;;;4984359;28;20027;-76
2022/10/08 01:27:00;;;;;;;15.88;10.02;;;14.00;99.90;;;;;;5017569;28;20021;-75
2022/10/08 01:29:38;;;;;;;18.80;9.77;;;14.00;99.90;;;;;;4989244;28;20038;-75
2022/10/08 01:32:21;;;;;;;16.52;10.30;;;14.00;99.90;;;;;;4995248;28;20080;-75
2022/10/08 01:35:06;;;;;;;16.98;10.38;;;13.90;99.90;;;;;;4996487;28;20386;-75
2022/10/08 01:37:37;;;;;;;16.67;10.00;;;14.00;99.90;;;;;;4995562;28;20549;-75
2022/10/08 01:40:11;;;;;;;17.67;9.75;;;14.00;99.90;;;;;;4995600;28;20114;-75
2022/10/08 01:42:39;;;;;;;12.95;9.40;;;14.00;99.90;;;;;;4988351;28;20018;-75
2022/10/08 01:45:11;;;;;;;14.88;9.95;;;14.00;99.90;;;;;;4997031;28;20026;-75
2022/10/08 01:47:45;;;;;;;12.90;9.43;;;14.00;99.90;;;;;;4997296;28;20050;-75
2022/10/08 01:50:27;;;;;;;13.88;9.88;;;13.90;99.90;;;;;;4995991;28;20390;-75
2022/10/08 01:53:03;;;;;;;12.10;9.02;;;13.90;99.90;;;;;;4995799;28;20490;-75
2022/10/08 01:55:39;;;;;;;13.80;9.35;;;13.90;99.90;;;;;;4994993;28;20030;-75
2022/10/08 01:58:29;;;;;;;20.15;9.82;;;14.00;99.90;;;;;;5011629;28;20037;-74
2022/10/08 02:01:06;;;;;;;15.88;9.55;;;13.90;99.90;;;;;;5011628;28;20117;-75
2022/10/08 02:06:50;;;;;;;15.98;9.45;;;13.90;99.90;;;;;;5000375;28;20037;-74
2022/10/08 02:09:17;;;;;;;14.68;9.43;;;13.90;99.90;;;;;;4996839;28;20039;-75
2022/10/08 02:11:45;;;;;;;15.18;9.65;;;13.90;99.90;;;;;;4994952;28;20497;-76
2022/10/08 02:14:24;;;;;;;11.52;8.55;;;13.90;99.90;;;;;;4999859;28;20018;-75
2022/10/08 02:17:21;;;;;;;14.45;9.13;;;13.90;99.90;;;;;;5010447;28;20286;-75
2022/10/08 02:20:23;;;;;;;14.40;8.82;;;13.90;99.90;;;;;;4992037;28;20034;-75
2022/10/08 02:22:57;;;;;;;12.95;9.35;;;13.90;99.90;;;;;;4995437;28;20026;-75
2022/10/08 02:25:35;;;;;;;16.80;9.52;;;13.90;99.90;;;;;;5001984;28;20516;-75
2022/10/08 02:28:20;;;;;;;12.27;7.93;;;13.90;99.90;;;;;;4996940;28;20501;-75
2022/10/08 02:30:49;;;;;;;;;;;13.90;99.90;;;;;;4994274;28;20029;-75
2022/10/08 02:33:39;;;;;;;14.25;8.25;;;13.90;99.90;;;;;;5013956;28;19921;-76
2022/10/08 02:36:18;;;;;;;13.77;7.88;;;13.90;99.90;;;;;;4994066;28;20027;-75
2022/10/08 02:38:51;;;;;;;12.88;7.97;;;13.90;99.90;;;;;;4993651;28;20038;-76
2022/10/08 02:41:53;;;;;;;13.13;8.30;;;13.90;99.90;;;;;;4992136;28;20136;-76
2022/10/08 02:44:47;;;;;;;16.60;8.57;;;13.90;99.90;;;;;;4987681;28;20030;-76
2022/10/08 02:47:20;;;;;;;11.55;8.18;;;13.90;99.90;;;;;;4983336;28;20038;-78
2022/10/08 02:49:55;;;;;;;13.40;7.57;;;13.90;99.90;;;;;;4993638;28;20045;-78
2022/10/08 02:52:26;;;;;;;19.63;8.85;;;13.90;99.90;;;;;;4990337;28;20185;-77
2022/10/08 02:54:54;;;;;;;13.85;8.45;;;13.90;99.90;;;;;;4991956;28;20026;-78
2022/10/08 02:57:43;;;;;;;15.45;8.20;;;13.90;99.90;;;;;;4995448;28;20034;-77
2022/10/08 03:00:10;;;;;;;13.32;8.00;;;13.90;99.90;;;;;;4993992;28;20030;-77
2022/10/08 03:02:51;;;;;;;12.45;7.35;;;13.90;99.90;;;;;;4999583;28;20374;-76
2022/10/08 03:05:18;;;;;;;14.38;8.23;;;13.90;99.90;;;;;;4995101;28;20038;-76
2022/10/08 03:07:47;;;;;;;10.57;7.15;;;13.90;99.90;;;;;;4994591;28;20045;-76
2022/10/08 03:10:17;;;;;;;15.75;7.93;;;13.90;99.90;;;;;;4995422;28;20039;-76
2022/10/08 03:12:42;;;;;;;14.00;8.93;;;13.90;99.90;;;;;;5003472;28;20584;-77
2022/10/08 03:15:14;;;;;;;16.92;8.27;;;13.90;99.90;;;;;;4989630;28;20039;-77
2022/10/08 03:17:47;;;;;;;13.82;7.82;;;13.80;99.90;;;;;;4992391;28;20482;-77
2022/10/08 03:20:13;;;;;;;15.57;7.82;;;13.80;99.90;;;;;;4993485;28;20041;-76
2022/10/08 03:22:39;;;;;;;11.63;6.97;;;13.80;99.90;;;;;;4993119;28;20026;-77
2022/10/08 03:25:08;;;;;;;16.48;7.90;;;13.80;99.90;;;;;;4991857;28;20022;-76
2022/10/08 03:27:34;;;;;;;12.18;7.45;;;13.80;99.90;;;;;;4987314;28;20034;-76
2022/10/08 03:30:00;;;;;;;14.82;7.78;;;13.80;99.90;;;;;;4987778;28;20026;-76
2022/10/08 03:32:32;;;;;;;12.85;7.95;;;13.80;99.90;;;;;;4990446;28;20116;-76
2022/10/08 03:35:00;;;;;;;13.63;7.15;;;13.80;99.90;;;;;;4992845;28;20019;-76
2022/10/08 03:37:26;;;;;;;16.13;7.20;;;13.80;99.90;;;;;;4993255;28;20117;-76
2022/10/08 03:39:54;;;;;;;11.25;6.70;;;13.80;99.90;;;;;;4989927;28;20454;-77
2022/10/08 03:42:25;;;;;;;13.30;7.55;;;13.80;99.90;;;;;;4990676;28;20480;-76
2022/10/08 03:44:52;;;;;;;12.32;7.03;;;13.80;99.90;;;;;;4991991;28;20034;-77
2022/10/08 03:47:17;;;;;;;13.75;7.13;;;13.80;99.90;;;;;;4993311;28;20033;-77
2022/10/08 03:49:43;;;;;;;11.00;7.15;;;13.80;99.90;;;;;;4989364;28;20034;-76
2022/10/08 03:52:12;;;;;;;15.57;6.68;;;13.80;99.90;;;;;;4989724;28;20449;-76
2022/10/08 03:54:37;;;;;;;10.10;6.03;;;13.80;99.90;;;;;;4989529;28;20068;-76
2022/10/08 03:57:03;;;;;;;14.32;6.55;;;13.80;99.90;;;;;;4996314;28;20080;-77
2022/10/08 03:59:29;;;;;;;10.52;5.68;;;13.80;99.90;;;;;;4989750;28;20158;-76
2022/10/08 04:01:58;;;;;;;15.18;6.43;;;13.80;99.90;;;;;;4995689;28;20081;-77
2022/10/08 04:04:26;;;;;;;14.93;7.03;;;13.80;99.90;;;;;;4990198;28;20402;-76
2022/10/08 04:06:54;;;;;;;10.23;6.20;;;13.80;99.90;;;;;;4989636;28;24003;-75
2022/10/08 04:09:20;;;;;;;13.13;7.05;;;13.80;99.90;;;;;;4992725;28;20034;-76
2022/10/08 04:11:52;;;;;;;10.65;6.65;;;13.70;99.90;;;;;;4990007;28;20029;-75
2022/10/08 04:14:17;;;;;;;11.77;7.47;;;13.80;99.90;;;;;;4986728;28;20108;-75
2022/10/08 04:16:52;;;;;;;15.07;7.78;;;13.70;99.90;;;;;;4992782;28;20035;-76
2022/10/08 04:19:24;;;;;;;15.52;7.95;;;13.80;99.90;;;;;;4993146;28;20072;-75
2022/10/08 04:21:53;;;;;;;13.23;7.47;;;13.80;99.90;;;;;;4987223;28;20066;-76
2022/10/08 04:24:21;;;;;;;10.90;7.68;;;13.80;99.90;;;;;;4991987;28;20431;-76
2022/10/08 04:26:53;;;;;;;16.60;8.10;;;13.80;99.90;;;;;;4992402;28;20026;-76
2022/10/08 04:29:19;;;;;;;13.65;8.32;;;13.70;99.90;;;;;;5003860;28;20479;-77
2022/10/08 04:31:50;;;;;;;16.25;8.70;;;13.80;99.90;;;;;;4981583;28;20033;-75
2022/10/08 04:34:16;;;;;;;17.02;8.13;;;13.70;99.90;;;;;;4991441;28;20552;-77
2022/10/08 04:36:50;;;;;;;15.80;8.60;;;13.70;99.90;;;;;;4990427;28;20042;-77
2022/10/08 04:39:22;;;;;;;21.08;10.95;;;13.70;99.90;;;;;;4994147;28;20038;-75
2022/10/08 04:41:47;;;;;;;28.45;11.60;;;13.70;99.90;;;;;;5004485;28;20026;-76
2022/10/08 04:44:13;;;;;;;30.95;12.10;;;13.60;99.90;;;;;;4987971;28;20029;-75
2022/10/08 04:46:45;;;;;;;22.30;9.55;;;13.70;99.90;;;;;;4996935;28;20058;-75
2022/10/08 04:49:13;;;;;;;27.30;9.90;;;13.60;99.90;;;;;;4987849;28;20034;-75
2022/10/08 04:51:45;;;;;;;13.35;7.85;;;13.60;99.90;;;;;;4987109;28;20121;-75
2022/10/08 04:54:11;;;;;;;13.25;7.75;;;13.60;99.90;;;;;;4997959;28;20041;-76
2022/10/08 04:56:39;;;;;;;17.38;8.15;;;13.60;99.90;;;;;;4992008;28;20030;-75
2022/10/08 04:59:08;;;;;;;20.17;9.13;;;13.50;99.90;;;;;;4990586;28;20034;-75
2022/10/08 05:01:36;;;;;;;14.32;7.28;;;13.50;99.90;;;;;;4984735;28;20118;-77
2022/10/08 05:04:04;;;;;;;13.57;7.68;;;13.50;99.90;;;;;;4980426;28;20027;-76
2022/10/08 05:06:30;;;;;;;17.80;7.20;;;13.50;99.90;;;;;;4984065;28;20101;-75
2022/10/08 05:09:01;;;;;;;12.43;6.70;;;13.40;99.90;;;;;;4991434;28;20113;-76
2022/10/08 05:11:27;;;;;;;13.80;7.45;;;13.40;99.90;;;;;;4984620;28;20081;-75
2022/10/08 05:13:54;;;;;;;13.98;6.90;;;13.40;99.90;;;;;;4982046;28;20038;-77
2022/10/08 05:16:20;;;;;;;12.90;6.32;;;13.40;99.90;;;;;;4985266;28;20036;-75
2022/10/08 05:18:49;;;;;;;14.18;6.95;;;13.40;99.90;;;;;;4999086;28;20034;-75
2022/10/08 05:21:27;;;;;;;20.50;8.10;;;13.30;99.90;;;;;;4988455;28;20030;-76
2022/10/08 05:23:59;;;;;;;16.73;7.10;;;13.30;99.90;;;;;;4990397;28;20403;-68
2022/10/08 05:26:28;;;;;;;19.38;7.38;;;13.30;99.90;;;;;;4990994;28;20035;-68
2022/10/08 05:28:56;;;;;;;12.88;7.38;;;13.30;99.90;;;;;;4995698;28;20026;-68
2022/10/08 05:31:23;;;;;;;19.80;7.97;;;13.30;99.90;;;;;;4983850;28;21439;-68
2022/10/08 05:33:49;;;;;;;14.52;7.07;;;13.30;99.90;;;;;;4975798;28;20040;-68
2022/10/08 05:36:27;;;;;;;15.02;7.78;;;13.30;99.90;;;;;;4994967;28;20034;-69
2022/10/08 05:38:55;;;;;;;16.25;7.35;;;13.30;99.90;;;;;;4982264;28;20034;-76
2022/10/08 05:41:26;;;;;;;16.52;7.18;;;13.30;99.90;;;;;;4987129;28;20057;-76
2022/10/08 05:43:56;;;;;;;18.33;7.22;;;13.30;99.90;;;;;;4989920;28;20031;-76
2022/10/08 05:46:25;;;;;;;18.13;7.15;;;13.30;99.90;;;;;;4987709;28;20035;-76
2022/10/08 05:48:59;;;;;;;12.40;7.30;;;13.30;99.90;;;;;;4988039;28;20092;-76
2022/10/08 05:51:26;;;;;;;16.17;7.25;;;13.30;99.90;;;;;;4951394;28;20030;-76
2022/10/08 05:53:52;;;;;;;15.02;7.35;;;13.30;99.90;;;;;;4996427;28;20096;-76
2022/10/08 05:56:21;;;;;;;11.75;7.05;;;13.40;99.90;;;;;;4986398;28;20110;-76
2022/10/08 05:58:48;;;;;;;16.00;7.85;;;13.40;99.90;;;;;;4995868;28;20026;-76
2022/10/08 06:01:46;;;;;;;13.07;7.30;;;13.40;99.90;;;;;;4992674;28;20084;-77
2022/10/08 06:04:15;;;;;;;12.23;7.03;;;13.40;99.90;;;;;;4980650;28;20066;-76
2022/10/08 06:06:47;;;;;;;16.23;7.97;;;13.50;99.90;;;;;;4990035;28;20030;-76
2022/10/08 06:09:18;;;;;;;16.17;8.93;;;13.40;99.90;;;;;;4988343;28;20088;-77
2022/10/08 06:11:47;;;;;;;21.48;9.63;;;13.50;99.90;;;;;;4992597;28;20033;-77
2022/10/08 06:14:19;;;;;;;20.85;9.82;;;13.50;99.90;;;;;;4998357;28;20121;-77
2022/10/08 06:16:45;;;;;;;16.63;7.68;;;13.50;99.90;;;;;;4994574;28;20030;-77
2022/10/08 06:19:10;;;;;;;23.50;8.48;;;13.40;99.90;;;;;;4999834;28;20034;-77
2022/10/08 06:21:37;;;;;;;18.85;7.68;;;13.40;99.90;;;;;;5011784;28;20471;-77
2022/10/08 06:24:06;;;;;;;21.42;7.97;;;13.50;99.90;;;;;;5005131;28;20025;-79
2022/10/08 06:26:37;;;;;;;16.15;7.45;;;13.50;99.90;;;;;;4995101;28;20029;-78
2022/10/08 06:29:08;;;;;;;15.13;8.05;;;13.50;99.90;;;;;;4996769;28;20026;-77
2022/10/08 06:31:47;;;;;;;18.48;8.50;;;13.60;99.90;;;;;;5001288;28;20113;-77
2022/10/08 06:34:12;;;;;;;20.83;8.20;;;13.60;99.90;;;;;;4993339;28;20042;-77
2022/10/08 06:36:44;;;;;;;15.05;7.70;;;13.60;99.90;;;;;;4990651;28;20129;-77
2022/10/08 06:39:16;;;;;;;17.83;8.43;;;13.70;99.90;;;;;;4999707;28;20030;-77
2022/10/08 06:41:42;;;;;;;19.77;9.40;;;13.70;99.90;;;;;;4993000;28;20041;-77
2022/10/08 06:44:12;;;;;;;21.80;8.73;;;13.80;99.90;;;;;;4993143;28;20071;-78
2022/10/08 06:46:41;;;;;;;15.70;8.65;;;13.80;99.90;;;;;;4992380;28;21828;-78
2022/10/08 06:49:06;;;;;;;23.20;9.45;;;13.90;99.90;;;;;;4994960;28;20030;-75
2022/10/08 06:51:32;;;;;;;22.25;9.80;;;13.90;99.90;;;;;;4992551;28;20041;-75
2022/10/08 06:54:17;;;;;;;34.92;18.27;;;13.90;99.90;;;;;;4990997;28;20108;-75
2022/10/08 06:56:45;;;;;;;26.58;12.85;;;13.90;99.90;;;;;;4993382;28;20022;-74
2022/10/08 06:59:11;;;;;;;19.15;11.73;;;14.00;99.90;;;;;;4998769;28;20089;-74
2022/10/08 07:01:40;;;;;;;20.30;10.68;;;14.00;99.90;;;;;;4997437;28;20467;-74
2022/10/08 07:04:06;;;;;;;25.40;12.52;;;14.00;99.90;;;;;;5066637;22;20037;-78
2022/10/08 07:06:31;;;;;;;17.88;11.25;;;14.00;99.90;;;;;;5036080;28;20079;-77
2022/10/08 07:09:03;;;;;;;27.48;12.52;;;14.10;99.90;;;;;;5033732;28;20110;-77
2022/10/08 07:11:30;;;;;;;24.23;12.88;;;14.00;99.90;;;;;;5037514;28;20382;-77
2022/10/08 07:13:56;;;;;;;23.23;12.55;;;14.00;99.90;;;;;;5039814;28;20104;-77
2022/10/08 07:16:26;;;;;;;22.10;12.40;;;14.10;99.90;;;;;;5035284;28;20080;-76
2022/10/08 07:18:57;;;;;;;27.63;13.85;;;14.10;99.90;;;;;;5035330;28;20026;-77
2022/10/08 07:21:23;;;;;;;21.63;12.68;;;14.10;99.90;;;;;;5038927;28;20029;-77
2022/10/08 07:23:49;;;;;;;17.23;11.40;;;14.20;99.90;;;;;;5036693;28;20025;-77
2022/10/08 07:26:20;;;;;;;22.70;12.55;;;14.20;99.90;;;;;;5037720;28;20021;-76
2022/10/08 07:28:53;;;;;;;20.27;11.70;;;14.20;99.90;;;;;;5032160;28;20033;-78
2022/10/08 07:31:21;;;;;;;21.50;12.55;;;14.30;99.90;;;;;;5035137;28;20082;-77
2022/10/08 07:33:47;;;;;;;21.58;12.20;;;14.30;99.90;;;;;;5031919;28;20017;-76
2022/10/08 07:36:16;;;;;;;20.88;11.77;;;14.30;99.90;;;;;;5035936;28;20028;-75
2022/10/08 07:38:42;;;;;;;20.15;11.73;;;14.40;99.90;;;;;;5037804;28;20100;-76
2022/10/08 07:41:09;;;;;;;25.13;13.05;;;14.40;99.90;;;;;;5034192;28;20017;-77
2022/10/08 07:43:36;;;;;;;18.75;12.05;;;14.40;99.90;;;;;;5035065;28;20033;-77
2022/10/08 07:46:04;;;;;;;19.85;12.93;;;14.50;99.90;;;;;;5034902;28;20033;-77
2022/10/08 07:48:30;;;;;;;22.48;12.07;;;14.50;99.90;;;;;;5035125;28;20235;-78
2022/10/08 07:51:15;;;;;;;21.17;12.55;;;14.50;99.90;;;;;;5032678;28;20025;-77
2022/10/08 07:53:47;;;;;;;19.52;11.45;;;14.60;99.90;;;;;;5058581;28;20033;-77
2022/10/08 07:56:18;;;;;;;23.77;12.38;;;14.60;99.90;;;;;;5034342;28;20028;-78
2022/10/08 07:58:48;;;;;;;21.90;11.63;;;14.70;99.90;;;;;;5054573;28;20162;-76
2022/10/08 08:01:28;;;;;;;16.05;12.10;;;14.70;99.90;;;;;;5034361;28;20462;-77
2022/10/08 08:04:00;;;;;;;19.17;10.93;;;14.80;99.90;;;;;;5037035;28;20093;-78
2022/10/08 08:06:26;;;;;;;23.25;11.15;;;14.90;99.90;;;;;;5045574;28;20030;-77
2022/10/08 08:08:55;;;;;;;18.50;12.45;;;14.90;99.90;;;;;;5035991;28;20026;-76
2022/10/08 08:11:24;;;;;;;21.33;11.48;;;14.90;99.90;;;;;;5031360;28;20039;-77
2022/10/08 08:13:51;;;;;;;23.02;11.48;;;15.00;99.90;;;;;;5028466;28;20049;-77
2022/10/08 08:16:19;;;;;;;20.40;12.25;;;15.00;99.90;;;;;;5033824;28;20250;-78
2022/10/08 08:18:50;;;;;;;23.73;11.20;;;15.00;99.90;;;;;;5033112;28;20021;-76
2022/10/08 08:21:25;;;;;;;23.98;12.07;;;15.00;99.90;;;;;;5035682;28;20030;-77
2022/10/08 08:23:53;;;;;;;20.73;12.38;;;15.00;99.90;;;;;;5035905;28;20029;-76
2022/10/08 08:26:28;;;;;;;22.05;12.52;;;15.10;99.90;;;;;;5036294;28;20251;-78
2022/10/08 08:28:56;;;;;;;18.05;11.43;;;15.10;99.90;;;;;;5034313;28;20033;-77
2022/10/08 08:31:28;;;;;;;19.95;11.23;;;15.10;99.90;;;;;;5035383;28;20540;-77
2022/10/08 08:33:56;;;;;;;19.00;11.68;;;15.10;99.90;;;;;;5033966;28;20026;-76
2022/10/08 08:36:28;;;;;;;22.23;12.20;;;15.10;99.90;;;;;;5036683;28;20478;-77
2022/10/08 08:38:54;;;;;;;21.88;12.73;;;15.20;99.90;;;;;;5032468;28;20036;-77
2022/10/08 08:41:59;;;;;;;23.45;12.02;;;15.20;99.90;;;;;;5036796;28;20026;-76
2022/10/08 08:44:31;;;;;;;19.05;11.75;;;15.30;99.90;;;;;;5038312;28;20352;-77
2022/10/08 08:47:10;;;;;;;20.92;12.32;;;15.30;99.90;;;;;;5030017;28;20026;-77
2022/10/08 08:49:47;;;;;;;19.05;9.07;;;15.30;99.90;;;;;;5034683;28;20040;-77
2022/10/08 08:52:24;;;;;;;13.95;8.75;;;15.30;99.90;;;;;;5031111;28;20049;-77
2022/10/08 08:54:52;;;;;;;20.65;10.40;;;15.30;99.90;;;;;;5034462;28;20044;-76
2022/10/08 08:57:41;;;;;;;15.68;8.90;;;15.30;99.90;;;;;;5037028;28;20033;-76
2022/10/08 09:00:19;;;;;;;16.83;8.30;;;15.30;99.90;;;;;;5035597;28;20034;-77
2022/10/08 09:02:58;;;;;;;14.73;8.18;;;15.30;99.90;;;;;;5034836;28;20076;-76
2022/10/08 09:05:27;;;;;;;13.35;6.93;;;15.30;99.90;;;;;;5047994;28;20056;-77
2022/10/08 09:08:25;;;;;;;13.32;6.65;;;15.30;99.90;;;;;;5036683;28;20144;-78
2022/10/08 09:10:58;;;;;;;15.95;8.75;;;15.30;99.90;;;;;;5003828;28;20076;-77
2022/10/08 09:13:32;;;;;;;16.27;7.57;;;15.40;99.90;;;;;;5029325;28;20371;-77
2022/10/08 09:15:58;;;;;;;16.65;7.13;;;15.40;99.90;;;;;;5025206;28;20037;-77
2022/10/08 09:18:24;;;;;;;14.55;7.00;;;15.50;99.90;;;;;;5025900;28;20025;-77
2022/10/08 09:20:50;;;;;;;13.73;6.80;;;15.50;99.90;;;;;;5028727;28;20033;-77
2022/10/08 09:23:35;;;;;;;11.63;5.68;;;15.60;99.90;;;;;;5029613;28;20108;-77
2022/10/08 09:26:29;;;;;;;13.38;5.22;;;15.60;99.90;;;;;;5039024;28;20037;-77
2022/10/08 09:28:59;;;;;;;11.90;4.43;;;15.70;99.90;;;;;;5027967;28;20432;-77
2022/10/08 09:31:44;;;;;;;9.80;4.70;;;15.80;99.90;;;;;;5028949;28;20513;-77
2022/10/08 09:34:09;;;;;;;11.35;5.35;;;15.80;99.90;;;;;;5030771;28;20029;-77
2022/10/08 09:36:35;;;;;;;14.38;5.22;;;15.90;99.90;;;;;;5048543;28;20439;-77
2022/10/08 09:39:15;;;;;;;10.52;3.75;;;15.90;99.90;;;;;;5024350;28;20567;-77
2022/10/08 09:42:02;;;;;;;15.68;4.25;;;16.00;99.90;;;;;;5030055;28;20069;-77
2022/10/08 09:44:44;;;;;;;9.95;3.53;;;16.00;99.90;;;;;;5041129;28;20026;-77
2022/10/08 09:47:15;;;;;;;9.05;3.75;;;16.10;99.90;;;;;;5035641;28;20044;-76
2022/10/08 09:49:42;;;;;;;12.20;4.18;;;16.10;99.90;;;;;;5030900;28;20029;-79
2022/10/08 09:52:19;;;;;;;13.95;4.50;;;16.20;99.90;;;;;;5035456;28;20051;-78
2022/10/08 09:54:52;;;;;;;13.38;4.65;;;16.20;99.90;;;;;;5042330;28;20048;-76
2022/10/08 09:57:19;;;;;;;13.60;6.88;;;16.30;99.90;;;;;;5041081;28;20037;-78
2022/10/08 10:00:00;;;;;;;14.05;5.35;;;16.30;99.90;;;;;;5031519;28;20120;-78
2022/10/08 10:02:35;;;;;;;8.55;3.78;;;16.40;99.90;;;;;;5035122;28;20112;-79
2022/10/08 10:05:06;;;;;;;13.10;5.28;;;16.40;99.90;;;;;;5039615;28;20037;-77
2022/10/08 10:07:43;;;;;;;8.85;5.32;;;16.40;99.90;;;;;;5042257;28;20030;-78
2022/10/08 10:10:33;;;;;;;9.65;4.90;;;16.50;99.90;;;;;;5057411;28;20044;-77
2022/10/08 10:13:18;;;;;;;10.30;4.93;;;16.50;99.90;;;;;;5038488;28;20548;-77
2022/10/08 10:15:49;;;;;;;41.63;35.35;;;16.50;99.90;;;;;;5045651;28;20098;-78
2022/10/08 10:18:41;;;;;;;19.73;8.43;;;16.60;99.90;;;;;;5041772;28;20037;-79
2022/10/08 10:21:16;;;;;;;11.60;4.60;;;16.60;99.90;;;;;;5067910;28;20693;-77
2022/10/08 10:24:05;;;;;;;11.25;5.22;;;16.60;99.90;;;;;;5041739;28;20025;-77
2022/10/08 10:26:44;;;;;;;13.23;5.15;;;16.70;99.90;;;;;;5021790;28;20057;-77
2022/10/08 10:29:17;;;;;;;9.32;4.03;;;16.80;99.90;;;;;;5055016;28;20539;-77
2022/10/08 10:32:11;;;;;;;8.88;4.28;;;16.90;99.90;;;;;;5035112;28;20108;-77
2022/10/08 10:34:38;;;;;;;;;;;16.90;99.90;;;;;;5018584;28;20367;-78
2022/10/08 10:37:19;;;;;;;9.90;3.78;;;17.00;99.90;;;;;;5040737;28;19940;-78
2022/10/08 10:40:07;;;;;;;9.57;3.35;;;17.10;99.90;;;;;;5039037;28;20037;-77
2022/10/08 10:42:42;;;;;;;15.80;3.45;;;17.10;99.90;;;;;;5046563;28;20030;-77
2022/10/08 10:45:24;;;;;;;6.95;3.22;;;17.20;99.90;;;;;;5038789;28;20052;-78
2022/10/08 10:47:52;;;;;;;9.95;2.95;;;17.30;99.90;;;;;;5036065;28;20025;-78
2022/10/08 10:50:40;;;;;;;5.55;2.45;;;17.30;99.90;;;;;;5039349;28;20029;-78
2022/10/08 10:53:27;;;;;;;7.32;3.00;;;17.40;99.90;;;;;;5028946;28;20068;-78
2022/10/08 10:56:20;;;;;;;7.57;2.28;;;17.40;99.90;;;;;;5036992;28;20397;-77
2022/10/08 10:59:15;;;;;;;7.20;2.30;;;17.50;99.90;;;;;;5033555;28;20033;-78
2022/10/08 11:01:58;;;;;;;;;;;17.50;99.90;;;;;;5043358;28;20024;-78
2022/10/08 11:05:02;;;;;;;6.68;2.70;;;17.60;99.90;;;;;;5062891;28;19909;-78
2022/10/08 11:07:30;;;;;;;9.32;3.05;;;17.70;99.90;;;;;;5031301;28;20028;-77
2022/10/08 11:10:08;;;;;;;3.75;2.35;;;17.70;99.90;;;;;;5035360;28;20028;-78
2022/10/08 11:12:36;;;;;;;9.32;2.83;;;17.80;99.90;;;;;;5052052;28;20235;-79
2022/10/08 11:15:16;;;;;;;6.63;3.47;;;17.80;99.90;;;;;;5040362;28;20033;-77
2022/10/08 11:18:00;;;;;;;8.00;2.58;;;17.80;99.90;;;;;;5058975;28;20048;-78
2022/10/08 11:20:50;;;;;;;9.93;2.72;;;17.80;99.90;;;;;;5038581;28;20352;-77
2022/10/08 11:23:37;;;;;;;12.00;4.97;;;17.80;99.90;;;;;;5038512;28;20030;-77
2022/10/08 11:26:24;;;;;;;9.32;4.32;;;17.80;99.90;;;;;;5065334;28;20199;-77
2022/10/08 11:29:17;;;;;;;7.95;4.60;;;17.80;99.90;;;;;;5041495;28;20136;-78
2022/10/08 11:31:47;;;;;;;14.15;3.85;;;17.80;99.90;;;;;;5033500;28;20033;-78
2022/10/08 11:34:31;;;;;;;7.57;3.42;;;17.80;99.90;;;;;;5039417;28;20485;-78
2022/10/08 11:37:30;;;;;;;7.82;3.00;;;17.80;99.90;;;;;;5035093;28;20057;-78
2022/10/08 11:40:17;;;;;;;10.13;3.72;;;17.80;99.90;;;;;;5040971;28;20076;-78
2022/10/08 11:42:54;;;;;;;15.18;5.00;;;17.80;99.90;;;;;;5032545;28;20052;-78
2022/10/08 11:45:35;;;;;;;11.20;4.70;;;17.60;99.90;;;;;;5046796;28;20021;-78
2022/10/08 11:48:27;;;;;;;7.30;3.22;;;17.50;99.90;;;;;;5038469;28;20371;-79
2022/10/08 11:51:13;;;;;;;8.63;3.33;;;17.50;99.90;;;;;;5036892;28;20032;-77
2022/10/08 11:54:00;;;;;;;7.53;2.33;;;17.50;99.90;;;;;;5051318;28;20507;-78
2022/10/08 11:56:31;;;;;;;6.25;2.90;;;17.40;99.90;;;;;;5036053;28;20086;-77
2022/10/08 11:59:01;;;;;;;7.55;3.33;;;17.30;99.90;;;;;;5038546;28;20087;-78
2022/10/08 12:01:27;;;;;;;10.23;3.13;;;17.30;99.90;;;;;;5037298;28;20052;-78
2022/10/08 12:04:20;;;;;;;6.38;2.65;;;17.20;99.90;;;;;;5039424;28;20017;-79
2022/10/08 12:06:47;;;;;;;9.82;2.38;;;17.20;99.90;;;;;;5038693;28;20072;-77
2022/10/08 12:09:23;;;;;;;11.88;4.03;;;17.20;99.90;;;;;;5039982;28;20026;-79
2022/10/08 12:11:51;;;;;;;8.32;3.05;;;17.20;99.90;;;;;;5034590;28;20105;-78
2022/10/08 12:14:17;;;;;;;11.50;3.65;;;17.20;99.90;;;;;;5034697;28;20040;-78
2022/10/08 12:16:55;;;;;;;7.47;2.33;;;17.20;99.90;;;;;;5056454;28;20029;-77
2022/10/08 12:19:33;;;;;;;10.70;3.05;;;17.30;99.90;;;;;;5047021;28;20030;-78
2022/10/08 12:21:59;;;;;;;9.00;2.80;;;17.40;99.90;;;;;;5036223;28;20124;-78
2022/10/08 12:24:38;;;;;;;8.70;2.88;;;17.40;99.90;;;;;;5036787;28;20050;-78
2022/10/08 12:27:16;;;;;;;11.85;2.60;;;17.50;99.90;;;;;;5036786;28;20034;-78
2022/10/08 12:29:56;;;;;;;7.60;2.53;;;17.50;99.90;;;;;;5038984;28;20037;-78
2022/10/08 12:32:28;;;;;;;8.18;2.08;;;17.40;99.90;;;;;;5052630;28;20371;-78
2022/10/08 12:34:58;;;;;;;6.05;1.98;;;17.50;99.90;;;;;;5038935;28;20028;-78
2022/10/08 12:37:45;;;;;;;10.00;2.38;;;17.50;99.90;;;;;;5039121;28;20029;-78
2022/10/08 12:40:21;;;;;;;8.38;1.92;;;17.50;99.90;;;;;;5039434;28;20332;-79
2022/10/08 12:43:01;;;;;;;8.20;2.15;;;17.30;99.90;;;;;;5040709;28;20095;-78
2022/10/08 12:45:38;;;;;;;13.18;1.95;;;17.30;99.90;;;;;;5055884;28;20025;-78
2022/10/08 12:48:13;;;;;;;6.03;2.13;;;17.30;99.90;;;;;;5036662;28;20045;-77
2022/10/08 12:51:03;;;;;;;8.88;2.55;;;17.30;99.90;;;;;;5039229;28;20084;-78
2022/10/08 12:53:29;;;;;;;6.22;2.03;;;17.20;99.90;;;;;;5035871;28;20026;-78
2022/10/08 12:55:59;;;;;;;7.18;1.90;;;17.20;99.90;;;;;;5040987;28;20048;-78
2022/10/08 12:58:32;;;;;;;10.93;2.58;;;17.30;99.90;;;;;;5035434;28;20053;-77
2022/10/08 13:01:03;;;;;;;9.57;2.40;;;17.20;99.90;;;;;;5046279;28;20048;-76
2022/10/08 13:03:29;;;;;;;7.05;2.30;;;17.20;99.90;;;;;;5040725;23;20148;-78
2022/10/08 13:06:16;;;;;;;5.85;1.98;;;17.20;99.90;;;;;;5008235;28;20097;-79
2022/10/08 13:08:47;;;;;;;8.15;2.05;;;17.30;99.90;;;;;;5014108;28;20032;-79
2022/10/08 13:11:14;;;;;;;8.25;2.03;;;17.30;99.90;;;;;;5025560;28;20026;-79
2022/10/08 13:13:43;;;;;;;10.18;1.85;;;17.40;99.90;;;;;;5013679;28;20041;-80